Time;durP1;ratioP1;P1;durP2;ratioP2;P2;SDS_P1;SDS_P2;PMS_P1;PMS_P2;Temp;Humidity;BMP_temperature;BMP_pressure;BME280_temperature;BME280_humidity;BME280_pressure;Samples;Min_cycle;Max_cycle;Signal;HPM_P1;HPM_P2
2021/07/07 00:01:15;;;;;;;1.95;0.73;;;25.60;47.80;;;;;;5064434;28;20020;-75
2021/07/07 00:03:41;;;;;;;2.53;0.85;;;25.60;47.80;;;;;;5060941;28;20033;-77
2021/07/07 00:06:07;;;;;;;2.25;0.80;;;25.60;48.20;;;;;;5058534;28;20449;-77
2021/07/07 00:08:34;;;;;;;1.08;0.65;;;25.50;48.40;;;;;;5057872;28;20066;-76
2021/07/07 00:11:01;;;;;;;2.28;0.85;;;25.50;48.30;;;;;;5061341;28;20035;-77
2021/07/07 00:13:29;;;;;;;6.78;0.95;;;25.40;48.30;;;;;;5055189;28;20052;-77
2021/07/07 00:15:55;;;;;;;1.00;0.60;;;25.40;48.80;;;;;;5056336;28;20419;-77
2021/07/07 00:18:20;;;;;;;2.33;1.20;;;25.40;48.60;;;;;;5057024;28;20052;-77
2021/07/07 00:20:56;;;;;;;2.65;1.00;;;25.30;48.50;;;;;;5063580;28;20437;-77
2021/07/07 00:23:23;;;;;;;3.03;1.45;;;25.30;48.40;;;;;;5061364;28;20528;-77
2021/07/07 00:25:50;;;;;;;1.80;1.15;;;25.40;48.80;;;;;;5059431;28;20032;-76
2021/07/07 00:28:15;;;;;;;1.17;1.02;;;25.30;48.20;;;;;;5065440;28;20032;-78
2021/07/07 00:30:41;;;;;;;1.63;0.88;;;25.30;48.50;;;;;;5063397;28;20157;-76
2021/07/07 00:33:07;;;;;;;2.00;0.98;;;25.30;49.50;;;;;;5060231;28;20032;-76
2021/07/07 00:35:33;;;;;;;5.70;1.00;;;25.30;49.10;;;;;;5067220;28;20013;-77
2021/07/07 00:37:59;;;;;;;3.72;0.68;;;25.30;48.90;;;;;;5066812;28;20028;-77
2021/07/07 00:40:25;;;;;;;1.17;0.60;;;25.30;49.00;;;;;;5067705;28;20103;-76
2021/07/07 00:42:51;;;;;;;1.70;0.85;;;25.30;48.80;;;;;;5065113;28;20109;-76
2021/07/07 00:45:17;;;;;;;1.27;0.93;;;25.40;49.10;;;;;;5060660;28;20158;-77
2021/07/07 00:47:45;;;;;;;1.42;0.80;;;25.40;49.00;;;;;;5060665;28;20028;-77
2021/07/07 00:50:12;;;;;;;1.10;0.80;;;25.40;49.00;;;;;;5060573;28;20615;-78
2021/07/07 00:52:38;;;;;;;1.50;1.10;;;25.40;49.10;;;;;;5060797;28;20124;-78
2021/07/07 00:55:09;;;;;;;1.17;0.80;;;25.40;49.20;;;;;;5060545;28;20020;-76
2021/07/07 00:57:35;;;;;;;7.00;0.80;;;25.40;49.00;;;;;;5060711;28;20647;-77
2021/07/07 01:00:08;;;;;;;1.45;0.80;;;25.40;48.90;;;;;;5058886;28;20525;-77
2021/07/07 01:02:38;;;;;;;0.88;0.60;;;25.40;48.80;;;;;;5060353;28;20043;-76
2021/07/07 01:05:06;;;;;;;3.13;0.70;;;25.40;48.80;;;;;;5063009;28;20465;-76
2021/07/07 01:07:32;;;;;;;1.00;0.60;;;25.40;49.00;;;;;;5060058;28;20025;-76
2021/07/07 01:09:58;;;;;;;2.40;1.00;;;25.40;48.50;;;;;;5061079;28;20032;-77
2021/07/07 01:12:26;;;;;;;0.85;0.80;;;25.30;48.60;;;;;;5059359;28;20025;-77
2021/07/07 01:14:53;;;;;;;0.73;0.70;;;25.30;49.00;;;;;;5074484;28;20016;-77
2021/07/07 01:17:20;;;;;;;0.82;0.70;;;25.30;48.60;;;;;;5066120;28;20075;-77
2021/07/07 01:19:47;;;;;;;1.88;0.90;;;25.20;49.50;;;;;;5054496;28;20017;-77
2021/07/07 01:22:13;;;;;;;2.03;0.65;;;25.20;49.40;;;;;;5054534;28;20491;-77
2021/07/07 01:24:38;;;;;;;1.40;0.70;;;25.20;49.10;;;;;;5054611;28;20108;-78
2021/07/07 01:27:04;;;;;;;1.00;0.70;;;25.10;49.50;;;;;;5054704;28;20058;-77
2021/07/07 01:29:30;;;;;;;1.05;0.93;;;25.00;49.00;;;;;;5062565;28;20032;-77
2021/07/07 01:31:56;;;;;;;0.80;0.80;;;25.00;49.40;;;;;;5074120;28;20074;-77
2021/07/07 01:34:22;;;;;;;0.60;0.60;;;25.00;49.70;;;;;;5064767;28;20021;-77
2021/07/07 01:36:48;;;;;;;1.08;0.77;;;24.90;50.30;;;;;;5063944;28;20044;-77
2021/07/07 01:39:13;;;;;;;1.00;0.80;;;24.90;50.30;;;;;;5064277;28;20035;-77
2021/07/07 01:41:40;;;;;;;0.82;0.70;;;24.90;50.40;;;;;;5056029;28;20025;-77
2021/07/07 01:44:06;;;;;;;1.65;0.77;;;24.90;50.60;;;;;;5073985;28;20044;-76
2021/07/07 01:46:32;;;;;;;3.60;0.60;;;24.90;50.10;;;;;;5073941;28;20056;-77
2021/07/07 01:48:59;;;;;;;1.25;0.82;;;24.90;50.40;;;;;;5071748;28;20024;-76
2021/07/07 01:51:24;;;;;;;0.80;0.70;;;24.90;50.00;;;;;;5055093;28;20041;-76
2021/07/07 01:53:50;;;;;;;0.82;0.65;;;25.00;50.10;;;;;;5053806;28;20370;-77
2021/07/07 01:56:16;;;;;;;1.23;0.70;;;25.00;50.10;;;;;;5054425;28;20025;-77
2021/07/07 01:58:42;;;;;;;1.38;0.98;;;25.00;50.20;;;;;;5059236;28;20048;-77
2021/07/07 02:01:08;;;;;;;0.73;0.68;;;25.00;50.10;;;;;;5059560;28;20103;-77
2021/07/07 02:03:34;;;;;;;2.38;0.60;;;25.00;49.80;;;;;;5052134;28;20090;-77
2021/07/07 02:06:00;;;;;;;0.63;0.55;;;25.00;49.80;;;;;;5053647;28;20445;-77
2021/07/07 02:08:25;;;;;;;0.65;0.47;;;25.00;49.80;;;;;;5056067;28;20028;-77
2021/07/07 02:10:52;;;;;;;0.88;0.55;;;25.00;49.80;;;;;;5053271;28;20029;-78
2021/07/07 02:13:18;;;;;;;0.95;0.60;;;25.00;49.60;;;;;;5061172;28;20021;-77
2021/07/07 02:15:44;;;;;;;0.73;0.60;;;25.00;49.70;;;;;;5072258;28;20020;-76
2021/07/07 02:18:10;;;;;;;0.68;0.60;;;25.00;49.60;;;;;;5055359;28;20478;-77
2021/07/07 02:20:40;;;;;;;3.83;0.60;;;25.00;49.50;;;;;;5053172;28;20062;-77
2021/07/07 02:23:08;;;;;;;1.02;0.60;;;25.10;49.40;;;;;;5057386;28;20692;-77
2021/07/07 02:25:35;;;;;;;1.40;0.40;;;25.10;49.40;;;;;;5053828;28;20025;-76
2021/07/07 02:28:03;;;;;;;0.45;0.43;;;25.10;49.30;;;;;;5055852;28;20064;-77
2021/07/07 02:30:31;;;;;;;0.40;0.40;;;25.10;49.60;;;;;;5067444;28;20024;-76
2021/07/07 02:32:57;;;;;;;1.05;0.43;;;25.00;49.40;;;;;;5072615;28;20478;-77
2021/07/07 02:35:26;;;;;;;0.50;0.50;;;25.10;49.40;;;;;;5053826;28;20017;-77
2021/07/07 02:37:53;;;;;;;1.60;0.60;;;25.00;49.50;;;;;;5053926;28;20017;-77
2021/07/07 02:40:21;;;;;;;0.73;0.70;;;25.00;49.40;;;;;;5054019;28;20020;-77
2021/07/07 02:42:47;;;;;;;0.77;0.43;;;25.00;49.60;;;;;;5052344;28;20028;-77
2021/07/07 02:45:14;;;;;;;0.80;0.50;;;25.00;49.60;;;;;;5053648;28;20017;-78
2021/07/07 02:47:41;;;;;;;0.30;0.30;;;25.00;49.60;;;;;;5053669;28;20029;-77
2021/07/07 02:50:09;;;;;;;0.90;0.40;;;25.00;49.70;;;;;;5053269;28;20041;-78
2021/07/07 02:52:38;;;;;;;1.70;0.50;;;25.00;49.80;;;;;;5053096;28;20036;-78
2021/07/07 02:55:04;;;;;;;0.63;0.60;;;25.00;50.00;;;;;;5053571;28;20020;-76
2021/07/07 02:57:56;;;;;;;1.50;0.52;;;24.90;49.80;;;;;;5053735;28;20078;-77
2021/07/07 03:00:16;;;;;;;0.75;0.43;;;24.90;49.70;;;;;;5053377;28;20033;-76
2021/07/07 03:02:42;;;;;;;1.20;0.57;;;24.90;49.70;;;;;;5053614;28;20025;-77
2021/07/07 03:05:08;;;;;;;1.75;0.70;;;24.80;49.70;;;;;;5053594;28;20071;-77
2021/07/07 03:07:34;;;;;;;0.75;0.50;;;24.80;50.00;;;;;;5052851;28;20021;-77
2021/07/07 03:10:04;;;;;;;0.50;0.50;;;24.80;50.10;;;;;;5053272;28;20091;-76
2021/07/07 03:12:29;;;;;;;6.18;0.60;;;24.70;50.20;;;;;;5051990;28;20537;-77
2021/07/07 03:14:55;;;;;;;0.70;0.60;;;24.70;50.80;;;;;;5053403;28;20104;-77
2021/07/07 03:17:21;;;;;;;0.55;0.43;;;24.60;50.50;;;;;;5053176;28;20029;-77
2021/07/07 03:19:46;;;;;;;0.60;0.50;;;24.60;50.60;;;;;;5068049;28;20519;-78
2021/07/07 03:22:12;;;;;;;0.75;0.70;;;24.50;50.90;;;;;;5071424;28;20060;-78
2021/07/07 03:24:38;;;;;;;0.77;0.63;;;24.50;51.20;;;;;;5051549;28;20048;-78
2021/07/07 03:27:04;;;;;;;0.90;0.47;;;24.50;51.00;;;;;;5052602;28;20471;-77
2021/07/07 03:29:29;;;;;;;0.57;0.50;;;24.50;51.40;;;;;;5052982;28;20116;-77
2021/07/07 03:31:55;;;;;;;1.55;0.40;;;24.50;51.20;;;;;;5052879;28;20032;-78
2021/07/07 03:34:21;;;;;;;3.60;0.65;;;24.50;51.60;;;;;;5052800;28;20017;-78
2021/07/07 03:36:47;;;;;;;8.30;0.73;;;24.50;51.30;;;;;;5052686;28;20126;-77
2021/07/07 03:39:13;;;;;;;0.30;0.30;;;24.50;51.70;;;;;;5052820;28;20025;-77
2021/07/07 03:41:39;;;;;;;2.25;0.75;;;24.50;51.60;;;;;;5059812;28;20119;-77
2021/07/07 03:44:05;;;;;;;2.63;0.70;;;24.50;51.80;;;;;;5054535;28;20055;-77
2021/07/07 03:46:31;;;;;;;4.88;0.60;;;24.50;51.70;;;;;;5062878;28;20322;-77
2021/07/07 03:48:57;;;;;;;0.77;0.70;;;24.60;51.70;;;;;;5051442;28;20025;-78
2021/07/07 03:51:23;;;;;;;1.85;0.60;;;24.60;52.00;;;;;;5053984;28;20040;-78
2021/07/07 03:53:48;;;;;;;0.80;0.40;;;24.60;51.60;;;;;;5052434;28;20040;-77
2021/07/07 03:56:14;;;;;;;0.55;0.50;;;24.70;51.70;;;;;;5052581;28;20103;-77
2021/07/07 03:58:40;;;;;;;3.55;0.52;;;24.70;51.50;;;;;;5051260;28;20025;-77
2021/07/07 04:01:05;;;;;;;0.82;0.50;;;24.70;51.40;;;;;;5051254;28;20035;-78
2021/07/07 04:03:31;;;;;;;0.85;0.40;;;24.80;51.50;;;;;;5052196;28;20029;-77
2021/07/07 04:05:57;;;;;;;1.48;0.40;;;24.80;51.50;;;;;;5052528;28;20029;-77
2021/07/07 04:08:23;;;;;;;1.25;0.47;;;24.80;51.40;;;;;;5052620;28;20040;-78
2021/07/07 04:10:48;;;;;;;0.88;0.55;;;24.80;51.60;;;;;;5063951;28;20032;-77
2021/07/07 04:13:14;;;;;;;0.88;0.60;;;24.80;51.40;;;;;;5071261;28;20382;-77
2021/07/07 04:15:40;;;;;;;0.50;0.50;;;24.80;51.40;;;;;;5071212;28;20543;-78
2021/07/07 04:18:09;;;;;;;0.80;0.57;;;24.90;51.50;;;;;;5066816;28;20025;-76
2021/07/07 04:20:35;;;;;;;0.50;0.47;;;24.90;51.60;;;;;;5052350;28;20017;-77
2021/07/07 04:23:00;;;;;;;1.75;0.47;;;25.00;51.40;;;;;;5063005;28;20056;-77
2021/07/07 04:25:26;;;;;;;1.88;0.60;;;25.00;51.40;;;;;;5052394;28;20439;-78
2021/07/07 04:27:52;;;;;;;4.68;0.75;;;25.00;51.20;;;;;;5070393;28;20025;-77
2021/07/07 04:30:19;;;;;;;0.50;0.50;;;25.00;51.20;;;;;;5057047;28;20383;-77
2021/07/07 04:32:46;;;;;;;4.97;0.80;;;25.10;51.40;;;;;;5069659;28;20446;-77
2021/07/07 04:35:16;;;;;;;0.85;0.50;;;25.10;51.30;;;;;;5071453;28;20456;-78
2021/07/07 04:37:42;;;;;;;0.75;0.68;;;25.20;51.40;;;;;;5072251;28;20020;-77
2021/07/07 04:40:10;;;;;;;1.05;0.60;;;25.20;51.30;;;;;;5071546;28;20040;-78
2021/07/07 04:42:36;;;;;;;2.10;0.60;;;25.20;51.30;;;;;;5072012;28;20025;-78
2021/07/07 04:45:07;;;;;;;0.85;0.60;;;25.30;51.30;;;;;;5072323;28;20025;-77
2021/07/07 04:47:33;;;;;;;0.60;0.52;;;25.30;51.20;;;;;;5070716;28;20070;-77
2021/07/07 04:49:59;;;;;;;0.82;0.50;;;25.30;51.10;;;;;;5063558;28;20072;-77
2021/07/07 04:52:24;;;;;;;0.95;0.60;;;25.40;51.00;;;;;;5054891;28;20480;-79
2021/07/07 04:54:50;;;;;;;0.43;0.40;;;25.40;50.90;;;;;;5064892;28;20101;-77
2021/07/07 04:57:16;;;;;;;1.20;0.52;;;25.50;50.90;;;;;;5052016;28;20104;-77
2021/07/07 04:59:42;;;;;;;0.65;0.45;;;25.50;51.00;;;;;;5051160;28;20143;-79
2021/07/07 05:02:08;;;;;;;1.20;0.45;;;25.50;50.90;;;;;;5053178;28;20025;-77
2021/07/07 05:04:34;;;;;;;1.98;0.70;;;25.50;51.00;;;;;;5062308;28;20066;-77
2021/07/07 05:07:00;;;;;;;2.38;0.70;;;25.50;51.00;;;;;;5054990;28;20036;-77
2021/07/07 05:09:25;;;;;;;1.42;0.80;;;25.60;51.00;;;;;;5051765;28;20176;-77
2021/07/07 05:11:51;;;;;;;1.35;0.50;;;25.60;50.90;;;;;;5051640;28;20028;-78
2021/07/07 05:14:17;;;;;;;1.35;0.52;;;25.60;51.00;;;;;;5052404;28;20021;-77
2021/07/07 05:16:43;;;;;;;1.23;0.63;;;25.60;50.90;;;;;;5055384;28;20477;-77
2021/07/07 05:19:09;;;;;;;1.60;0.50;;;25.70;51.00;;;;;;5055702;28;20036;-77
2021/07/07 05:21:37;;;;;;;2.72;0.60;;;25.80;50.90;;;;;;5057908;28;20025;-77
2021/07/07 05:24:03;;;;;;;3.55;0.60;;;25.80;50.70;;;;;;5074049;28;20028;-77
2021/07/07 05:26:29;;;;;;;0.40;0.40;;;25.80;50.90;;;;;;5055892;28;20021;-76
2021/07/07 05:28:55;;;;;;;0.82;0.60;;;25.90;50.50;;;;;;5055202;28;20029;-77
2021/07/07 05:31:21;;;;;;;1.23;0.50;;;25.90;50.40;;;;;;5058211;28;20078;-77
2021/07/07 05:33:47;;;;;;;6.00;0.90;;;25.90;50.30;;;;;;5060159;28;20471;-79
2021/07/07 05:36:12;;;;;;;1.55;0.85;;;25.90;50.30;;;;;;5063531;28;20056;-76
2021/07/07 05:38:38;;;;;;;1.45;0.90;;;25.90;50.20;;;;;;5061348;28;20021;-76
2021/07/07 05:41:05;;;;;;;1.40;0.50;;;25.90;50.20;;;;;;5052008;28;20433;-75
2021/07/07 05:43:31;;;;;;;2.88;0.98;;;25.90;50.20;;;;;;5052472;28;20340;-77
2021/07/07 05:46:00;;;;;;;3.53;0.70;;;25.90;50.30;;;;;;5054457;28;20501;-76
2021/07/07 05:48:29;;;;;;;1.67;0.88;;;25.90;50.40;;;;;;5055849;28;20497;-76
2021/07/07 05:50:56;;;;;;;5.93;0.90;;;25.90;50.40;;;;;;5071611;28;20049;-75
2021/07/07 05:53:23;;;;;;;0.90;0.63;;;25.80;50.40;;;;;;5069271;28;20059;-76
2021/07/07 05:55:49;;;;;;;3.90;0.68;;;25.90;50.50;;;;;;5069939;28;20103;-77
2021/07/07 05:58:15;;;;;;;1.73;0.70;;;25.90;50.50;;;;;;5055372;28;20017;-76
2021/07/07 06:00:41;;;;;;;5.78;0.60;;;25.90;50.50;;;;;;5061369;28;20024;-76
2021/07/07 06:03:06;;;;;;;1.95;0.90;;;25.90;50.60;;;;;;5063505;28;20047;-75
2021/07/07 06:05:32;;;;;;;1.60;0.80;;;26.00;50.60;;;;;;5074263;28;20355;-76
2021/07/07 06:07:59;;;;;;;2.47;0.82;;;26.10;50.60;;;;;;5069004;28;20097;-76
2021/07/07 06:10:27;;;;;;;1.52;0.70;;;26.20;50.30;;;;;;5067757;28;20449;-77
2021/07/07 06:12:54;;;;;;;2.78;1.13;;;26.30;50.20;;;;;;5055172;28;20048;-76
2021/07/07 06:15:21;;;;;;;1.67;0.75;;;26.40;49.80;;;;;;5066011;28;20570;-77
2021/07/07 06:17:47;;;;;;;3.60;0.93;;;26.50;49.80;;;;;;5072288;28;20047;-76
2021/07/07 06:20:14;;;;;;;1.67;0.90;;;26.60;49.60;;;;;;5061608;28;20541;-76
2021/07/07 06:22:42;;;;;;;2.30;0.90;;;26.70;49.50;;;;;;5069482;28;20031;-77
2021/07/07 06:25:09;;;;;;;2.75;0.82;;;26.70;49.30;;;;;;5071435;28;20036;-76
2021/07/07 06:27:37;;;;;;;2.97;0.70;;;26.70;49.10;;;;;;5071074;28;21707;-76
2021/07/07 06:30:10;;;;;;;2.45;1.08;;;26.70;49.10;;;;;;5061070;28;20473;-76
2021/07/07 06:32:36;;;;;;;2.28;0.90;;;26.70;49.00;;;;;;5073772;28;20052;-76
2021/07/07 06:35:03;;;;;;;1.23;0.70;;;26.80;48.90;;;;;;5068668;28;20066;-77
2021/07/07 06:37:29;;;;;;;0.77;0.70;;;26.80;49.00;;;;;;5054559;28;20029;-76
2021/07/07 06:39:55;;;;;;;1.02;0.50;;;26.90;49.00;;;;;;5073687;28;20540;-77
2021/07/07 06:42:21;;;;;;;1.23;0.70;;;26.90;48.90;;;;;;5071895;28;20029;-76
2021/07/07 06:44:47;;;;;;;1.20;0.70;;;27.00;48.80;;;;;;5066309;28;20035;-76
2021/07/07 06:47:13;;;;;;;2.08;1.00;;;27.00;48.50;;;;;;5065609;28;20033;-76
2021/07/07 06:49:39;;;;;;;3.35;1.02;;;27.10;48.50;;;;;;5052520;28;20437;-76
2021/07/07 06:52:05;;;;;;;2.58;1.33;;;27.10;48.40;;;;;;5060650;28;20095;-76
2021/07/07 06:54:31;;;;;;;1.98;1.08;;;27.10;48.20;;;;;;5068277;28;20401;-76
2021/07/07 06:56:56;;;;;;;2.35;1.00;;;27.10;48.20;;;;;;5058780;28;20017;-76
2021/07/07 06:59:22;;;;;;;2.67;1.05;;;27.10;48.20;;;;;;5065856;28;20021;-75
2021/07/07 07:01:48;;;;;;;1.88;0.95;;;27.00;48.20;;;;;;5069801;28;20074;-76
2021/07/07 07:04:14;;;;;;;3.00;1.10;;;26.90;48.20;;;;;;5065773;28;20029;-76
2021/07/07 07:06:40;;;;;;;1.52;1.25;;;26.80;48.40;;;;;;5060639;28;20094;-77
2021/07/07 07:09:06;;;;;;;5.53;1.77;;;26.80;48.50;;;;;;5062331;28;20162;-76
2021/07/07 07:11:32;;;;;;;1.75;0.98;;;26.70;48.70;;;;;;5066231;28;20529;-76
2021/07/07 07:13:58;;;;;;;3.85;1.00;;;26.70;48.80;;;;;;5063996;28;20150;-77
2021/07/07 07:16:24;;;;;;;2.58;0.82;;;26.70;48.90;;;;;;5062647;28;20013;-76
2021/07/07 07:18:50;;;;;;;14.57;1.00;;;26.70;49.00;;;;;;5053106;28;20033;-78
2021/07/07 07:21:17;;;;;;;3.17;0.80;;;26.70;49.00;;;;;;5053851;28;20020;-76
2021/07/07 07:23:43;;;;;;;1.27;0.80;;;26.70;49.10;;;;;;5051391;28;20501;-75
2021/07/07 07:26:08;;;;;;;9.52;0.90;;;26.70;49.00;;;;;;5067190;28;20025;-77
2021/07/07 07:28:34;;;;;;;1.40;0.70;;;26.70;49.00;;;;;;5068081;28;20017;-76
2021/07/07 07:31:00;;;;;;;1.48;0.80;;;26.70;49.00;;;;;;5065739;28;20068;-77
2021/07/07 07:33:26;;;;;;;3.08;0.95;;;26.70;49.00;;;;;;5052662;28;20091;-77
2021/07/07 07:35:52;;;;;;;2.08;0.77;;;26.70;49.10;;;;;;5051678;28;20021;-77
2021/07/07 07:39:00;;;;;;;2.50;1.38;;;26.70;49.10;;;;;;5068607;28;20020;-77
2021/07/07 07:41:07;;;;;;;4.22;1.10;;;26.80;49.10;;;;;;5055681;28;20435;-76
2021/07/07 07:43:33;;;;;;;1.60;0.82;;;26.70;49.00;;;;;;5052180;28;20040;-76
2021/07/07 07:46:00;;;;;;;2.63;0.80;;;26.80;49.10;;;;;;5056367;28;20107;-76
2021/07/07 07:48:26;;;;;;;1.60;0.80;;;26.80;49.10;;;;;;5051897;28;20036;-77
2021/07/07 07:50:53;;;;;;;1.33;0.85;;;26.90;49.20;;;;;;5051726;28;20094;-77
2021/07/07 07:53:19;;;;;;;0.90;0.70;;;26.90;49.00;;;;;;5063846;28;20032;-77
2021/07/07 07:55:45;;;;;;;1.92;0.82;;;26.90;48.90;;;;;;5071625;28;20021;-76
2021/07/07 07:58:17;;;;;;;1.42;0.85;;;26.90;48.90;;;;;;5066807;28;20021;-77
2021/07/07 08:00:44;;;;;;;1.15;0.65;;;26.90;48.80;;;;;;5070790;28;20044;-77
2021/07/07 08:03:09;;;;;;;0.98;0.60;;;27.00;48.80;;;;;;5067122;28;20020;-76
2021/07/07 08:05:35;;;;;;;2.20;0.80;;;27.00;48.70;;;;;;5051370;28;20025;-77
2021/07/07 08:08:02;;;;;;;2.67;0.95;;;27.00;48.80;;;;;;5050177;28;20116;-76
2021/07/07 08:10:28;;;;;;;1.75;1.00;;;26.90;48.70;;;;;;5051368;28;20025;-77
2021/07/07 08:12:55;;;;;;;4.30;1.27;;;26.90;48.70;;;;;;5052362;28;20016;-77
2021/07/07 08:15:22;;;;;;;1.30;0.80;;;26.90;48.80;;;;;;5060778;28;20109;-78
2021/07/07 08:17:48;;;;;;;1.13;0.70;;;26.80;48.80;;;;;;5071035;28;20029;-77
2021/07/07 08:20:14;;;;;;;1.95;0.88;;;26.80;48.80;;;;;;5070106;28;20028;-77
2021/07/07 08:22:40;;;;;;;1.35;0.73;;;26.80;48.90;;;;;;5069906;28;20048;-77
2021/07/07 08:25:08;;;;;;;1.48;0.80;;;26.70;49.00;;;;;;5066951;28;20024;-77
2021/07/07 08:27:34;;;;;;;1.95;1.08;;;26.70;49.00;;;;;;5057562;28;20402;-75
2021/07/07 08:30:00;;;;;;;2.92;0.70;;;26.70;49.10;;;;;;5055091;28;20541;-75
2021/07/07 08:32:26;;;;;;;1.45;0.68;;;26.70;49.20;;;;;;5060630;28;20104;-75
2021/07/07 08:34:52;;;;;;;1.98;0.90;;;26.70;49.20;;;;;;5071385;28;20027;-75
2021/07/07 08:37:17;;;;;;;1.02;0.60;;;26.70;49.20;;;;;;5068415;28;20033;-75
2021/07/07 08:39:46;;;;;;;1.15;0.60;;;26.70;49.20;;;;;;5072072;28;20028;-75
2021/07/07 08:42:12;;;;;;;4.28;0.80;;;26.60;49.10;;;;;;5070719;28;20032;-76
2021/07/07 08:44:38;;;;;;;1.40;0.80;;;26.60;49.20;;;;;;5060443;28;20402;-75
2021/07/07 08:47:05;;;;;;;2.53;0.70;;;26.60;49.30;;;;;;5053040;28;20096;-76
2021/07/07 08:49:31;;;;;;;6.10;1.05;;;26.60;49.30;;;;;;5061363;28;20048;-76
2021/07/07 08:51:57;;;;;;;1.52;0.90;;;26.60;49.40;;;;;;5075681;28;20028;-75
2021/07/07 08:54:22;;;;;;;1.63;0.75;;;26.60;49.40;;;;;;5060769;28;20028;-76
2021/07/07 08:56:49;;;;;;;1.08;0.73;;;26.60;49.60;;;;;;5055774;28;20558;-75
2021/07/07 08:59:16;;;;;;;1.23;0.80;;;26.50;49.50;;;;;;5054333;28;20489;-75
2021/07/07 09:02:05;;;;;;;1.20;0.82;;;26.50;49.70;;;;;;5054309;28;20033;-74
2021/07/07 09:04:38;;;;;;;2.40;0.80;;;26.50;49.60;;;;;;5055394;28;20047;-74
2021/07/07 09:07:07;;;;;;;3.80;0.80;;;26.60;49.80;;;;;;5072979;28;20490;-75
2021/07/07 09:09:54;;;;;;;1.02;0.90;;;26.60;49.80;;;;;;5075426;28;20016;-74
2021/07/07 09:12:25;;;;;;;2.45;0.98;;;26.70;49.80;;;;;;5067605;28;20408;-74
2021/07/07 09:15:06;;;;;;;4.32;0.75;;;26.70;49.60;;;;;;5066960;28;20028;-76
2021/07/07 09:17:50;;;;;;;2.08;0.80;;;26.80;49.70;;;;;;5062731;28;20032;-76
2021/07/07 09:20:22;;;;;;;1.20;0.60;;;26.80;49.40;;;;;;5055355;28;20372;-74
2021/07/07 09:22:50;;;;;;;2.15;1.00;;;26.90;49.40;;;;;;5075355;28;20775;-74
2021/07/07 09:25:26;;;;;;;0.90;0.60;;;27.00;49.20;;;;;;5075224;28;20382;-76
2021/07/07 09:27:52;;;;;;;2.03;1.10;;;27.00;48.90;;;;;;5075057;28;20013;-75
2021/07/07 09:30:18;;;;;;;7.38;0.93;;;27.10;49.00;;;;;;5066451;28;20027;-74
2021/07/07 09:32:46;;;;;;;1.02;0.75;;;27.10;48.90;;;;;;5054848;28;20423;-74
2021/07/07 09:35:13;;;;;;;2.25;0.77;;;27.20;48.90;;;;;;5070037;28;20064;-74
2021/07/07 09:37:46;;;;;;;0.90;0.80;;;27.20;48.70;;;;;;5055010;28;20171;-76
2021/07/07 09:40:13;;;;;;;0.83;0.60;;;27.30;48.60;;;;;;5056554;28;20084;-75
2021/07/07 09:42:42;;;;;;;1.23;0.65;;;27.30;48.30;;;;;;5058401;28;20029;-74
2021/07/07 09:45:15;;;;;;;1.92;0.60;;;27.30;48.20;;;;;;5055012;28;20060;-75
2021/07/07 09:47:41;;;;;;;2.30;1.05;;;27.30;48.30;;;;;;5059397;28;20064;-75
2021/07/07 09:50:08;;;;;;;5.10;0.85;;;27.30;48.40;;;;;;5060249;28;20049;-77
2021/07/07 09:52:34;;;;;;;8.50;1.40;;;27.40;48.60;;;;;;5059969;28;20028;-74
2021/07/07 09:55:02;;;;;;;1.90;1.20;;;27.30;48.70;;;;;;5059833;28;20021;-73
2021/07/07 09:57:27;;;;;;;3.10;1.08;;;27.30;48.80;;;;;;5060215;28;20023;-74
2021/07/07 09:59:54;;;;;;;1.75;0.80;;;27.30;48.90;;;;;;5065233;28;20017;-74
2021/07/07 10:02:19;;;;;;;2.22;0.93;;;27.20;48.90;;;;;;5066723;28;20039;-74
2021/07/07 10:04:45;;;;;;;1.27;0.82;;;27.20;49.30;;;;;;5060685;28;20122;-75
2021/07/07 10:07:13;;;;;;;2.13;0.90;;;27.30;49.30;;;;;;5058817;28;20081;-75
2021/07/07 10:09:43;;;;;;;1.90;0.73;;;27.40;49.40;;;;;;5060098;28;20490;-74
2021/07/07 10:12:09;;;;;;;2.33;0.80;;;27.50;49.30;;;;;;5061476;28;20036;-75
2021/07/07 10:14:35;;;;;;;0.95;0.73;;;27.60;49.00;;;;;;5062834;28;20386;-74
2021/07/07 10:17:01;;;;;;;1.58;0.80;;;27.70;48.50;;;;;;5067396;28;20047;-75
2021/07/07 10:19:28;;;;;;;1.65;0.80;;;27.80;48.30;;;;;;5060809;28;20021;-74
2021/07/07 10:21:55;;;;;;;1.52;0.75;;;27.90;48.00;;;;;;5054205;28;20057;-74
2021/07/07 10:24:30;;;;;;;1.30;0.70;;;28.00;48.00;;;;;;5054271;28;20146;-74
2021/07/07 10:27:03;;;;;;;4.75;0.80;;;28.00;47.90;;;;;;5052424;28;20533;-75
2021/07/07 10:29:30;;;;;;;8.30;1.03;;;28.10;47.80;;;;;;5054215;28;20033;-75
2021/07/07 10:32:00;;;;;;;3.58;1.08;;;28.10;47.50;;;;;;5067652;28;20155;-75
2021/07/07 10:34:30;;;;;;;1.27;1.00;;;28.00;47.50;;;;;;5059337;28;20021;-75
2021/07/07 10:36:57;;;;;;;1.98;0.77;;;28.00;47.60;;;;;;5053414;28;20021;-74
2021/07/07 10:39:23;;;;;;;0.75;0.73;;;28.00;47.60;;;;;;5053841;28;20103;-74
2021/07/07 10:41:52;;;;;;;2.33;0.75;;;28.00;47.80;;;;;;5052658;28;20435;-75
2021/07/07 10:44:24;;;;;;;1.23;0.85;;;28.00;47.80;;;;;;5060975;28;20044;-75
2021/07/07 10:46:54;;;;;;;1.92;0.80;;;28.10;47.80;;;;;;5072575;28;20063;-74
2021/07/07 10:49:25;;;;;;;1.40;1.00;;;28.20;47.70;;;;;;5071724;28;20389;-75
2021/07/07 10:51:53;;;;;;;2.85;1.00;;;28.20;47.30;;;;;;5053210;28;20020;-74
2021/07/07 10:54:20;;;;;;;4.78;1.13;;;28.30;46.90;;;;;;5053590;28;20131;-74
2021/07/07 10:56:48;;;;;;;1.88;0.90;;;28.30;46.40;;;;;;5053410;28;20021;-74
2021/07/07 10:59:37;;;;;;;2.28;0.90;;;28.30;46.60;;;;;;5053413;28;20494;-75
2021/07/07 11:02:15;;;;;;;2.88;0.95;;;28.40;46.50;;;;;;5053279;28;20064;-74
2021/07/07 11:04:46;;;;;;;3.85;1.00;;;28.40;46.40;;;;;;5051454;28;20116;-75
2021/07/07 11:07:30;;;;;;;1.83;0.95;;;28.40;46.30;;;;;;5051921;28;20534;-74
2021/07/07 11:10:00;;;;;;;0.60;0.60;;;28.40;46.30;;;;;;5053048;28;20390;-74
2021/07/07 11:12:49;;;;;;;2.55;0.90;;;28.40;46.20;;;;;;5052338;28;20126;-75
2021/07/07 11:15:22;;;;;;;1.15;0.77;;;28.40;46.20;;;;;;5052878;28;20021;-75
2021/07/07 11:18:01;;;;;;;1.63;1.05;;;28.50;46.10;;;;;;5052937;28;20013;-74
2021/07/07 11:20:32;;;;;;;4.38;0.82;;;28.50;46.30;;;;;;5052701;28;20025;-74
2021/07/07 11:23:11;;;;;;;1.23;0.75;;;28.60;46.40;;;;;;5052561;28;20386;-74
2021/07/07 11:25:40;;;;;;;2.85;0.90;;;28.60;46.40;;;;;;5052641;28;20017;-75
2021/07/07 11:28:11;;;;;;;2.70;1.17;;;28.60;46.30;;;;;;5053069;28;20421;-74
2021/07/07 11:30:37;;;;;;;2.28;1.40;;;28.70;46.30;;;;;;5052628;28;20101;-76
2021/07/07 11:33:05;;;;;;;1.27;0.73;;;28.70;46.50;;;;;;5051981;28;20471;-75
2021/07/07 11:35:33;;;;;;;3.00;1.05;;;28.80;46.40;;;;;;5052556;28;20028;-74
2021/07/07 11:38:08;;;;;;;2.35;1.08;;;28.90;46.30;;;;;;5052562;28;20077;-75
2021/07/07 11:40:39;;;;;;;1.67;0.77;;;29.00;46.70;;;;;;5052647;28;20471;-75
2021/07/07 11:43:15;;;;;;;1.30;0.98;;;29.10;45.80;;;;;;5052502;28;20022;-75
2021/07/07 11:45:49;;;;;;;1.73;1.00;;;29.20;45.40;;;;;;5052591;28;20108;-74
2021/07/07 11:50:49;;;;;;;1.92;0.80;;;29.50;45.70;;;;;;5052595;28;20441;-75
2021/07/07 11:53:16;;;;;;;0.50;0.30;;;29.70;44.80;;;;;;5053377;28;20029;-75
2021/07/07 11:55:56;;;;;;;3.38;0.95;;;29.80;44.30;;;;;;5053881;28;20096;-75
2021/07/07 11:58:32;;;;;;;0.68;0.68;;;29.90;44.10;;;;;;5053608;28;20569;-74
2021/07/07 12:01:08;;;;;;;2.30;0.70;;;30.10;44.00;;;;;;5052507;28;20383;-74
2021/07/07 12:03:35;;;;;;;5.13;0.93;;;30.20;43.70;;;;;;5052434;28;20021;-75
2021/07/07 12:06:05;;;;;;;1.35;0.80;;;30.30;43.10;;;;;;5051104;28;20032;-76
2021/07/07 12:08:36;;;;;;;1.05;0.80;;;30.40;42.90;;;;;;5052392;28;20098;-76
2021/07/07 12:11:16;;;;;;;1.52;0.80;;;30.50;42.50;;;;;;5052191;28;20386;-75
2021/07/07 12:13:50;;;;;;;1.35;0.77;;;30.60;42.60;;;;;;5052207;28;20017;-76
2021/07/07 12:16:26;;;;;;;2.42;0.70;;;30.80;42.40;;;;;;5052185;28;20363;-76
2021/07/07 12:19:01;;;;;;;1.65;0.40;;;30.90;42.10;;;;;;5052232;28;20071;-75
2021/07/07 12:21:28;;;;;;;1.02;0.80;;;31.00;41.90;;;;;;5051956;28;20505;-76
2021/07/07 12:23:56;;;;;;;2.95;0.70;;;31.10;41.20;;;;;;5053949;28;20056;-75
2021/07/07 12:26:34;;;;;;;1.85;0.60;;;31.20;41.00;;;;;;5056300;28;20078;-74
2021/07/07 12:29:01;;;;;;;2.95;0.68;;;31.30;41.00;;;;;;5056266;28;20028;-75
2021/07/07 12:31:35;;;;;;;2.58;1.05;;;31.40;40.60;;;;;;5054936;28;20078;-75
2021/07/07 12:34:01;;;;;;;0.90;0.80;;;31.50;40.60;;;;;;5054731;28;20461;-75
2021/07/07 12:36:30;;;;;;;1.05;0.55;;;31.60;40.80;;;;;;5056000;28;20017;-73
2021/07/07 12:38:57;;;;;;;1.10;0.60;;;31.70;40.30;;;;;;5056026;28;20542;-74
2021/07/07 12:41:34;;;;;;;0.73;0.60;;;31.80;40.40;;;;;;5056113;28;20019;-74
2021/07/07 12:44:09;;;;;;;3.88;0.57;;;32.00;40.20;;;;;;5055901;28;20025;-74
2021/07/07 12:46:50;;;;;;;1.55;0.70;;;32.10;40.00;;;;;;5055983;28;20017;-74
2021/07/07 12:49:22;;;;;;;0.80;0.50;;;32.30;40.00;;;;;;5054286;28;20025;-74
2021/07/07 12:51:51;;;;;;;0.73;0.50;;;32.50;39.40;;;;;;5054544;28;20662;-75
2021/07/07 12:54:23;;;;;;;5.82;0.50;;;32.60;38.80;;;;;;5055762;28;20017;-74